Green Bay, WI

11:17 PM CDT on September 03, 2015 (GMT -0500)
South Ashwaubenon | | Change Station
CLOSE
Current Station
Personal Weather Station
Location: Green Bay, WI
Elevation: 643 ft
Nearby Weather Stations

Elev 643 ft 44.48 °N, 88.09 °W | Updated 13 minutes ago

Clear
Clear
65.1 °F
Feels Like 65.1 °F
N
0.0
Wind Variable Wind from West

Today
High -- | Low -- °F
--% Chance of Precip.
Yesterday
High -- | Low -- °F
Precip. -- in
6:17 AM 7:25 PM
Waning Gibbous, 63% visible
Pressure 29.97 in
Visibility 9.0 miles
Clouds Clear
Dew Point 64 °F
Humidity 98%
Rainfall 0.05 in
Snow Depth Not available.
UV 0 out of 12
Pollen 3.10 out of 12
Air Quality Not available.
Flu Activity Not available.
METAR KGRB 040353Z 36005KT 9SM CLR 18/17 A2997 RMK AO2 SLP148 T01830172
Pressure 29.97 in
Visibility 9.0 miles
Clouds Clear
Dew Point 64 °F
Humidity 98%
Rainfall 0.05 in
Snow Depth Not available.
UV 0 out of 12
Pollen 3.10 out of 12
Air Quality Not available.
Flu Activity Not available.
METAR KGRB 040353Z 36005KT 9SM CLR 18/17 A2997 RMK AO2 SLP148 T01830172

10-Day Weather Forecast

×

Almanac

Astronomy

Sep. 03, 2015 Rise Set
Actual Time
Civil Twilight
Nautical Twilight
Astronomical Twilight
Moon
Length of Visible Light
Length of Day
Tomorrow will be .
, % of the Moon is Illuminated

Today's Extremes

State Highs State Lows

Community

WunderPhotos

Upload Photos

1,852,126 photos uploaded!

WunderBlogs® & News

Nearby

Air Quality

  Air Quality AQ Index Pollutant
Not available.

Snow Depth

Station Depth Elevation

Earthquake Activity

City Distance Mag. Time & Date
Minimum magnitude displayed is 2.5.

Coastal Water Temperatures

Place Temperature

Stations

Nearby Weather Stations

Station Location Temp. Windchill Dew Point Humidity Wind Precip. Elev Updated Type